sensor_id;sensor_type;location;lat;lon;timestamp;P1;durP1;ratioP1;P2;durP2;ratioP2
79562;SDS011;69026;50.980;11.314;2023-06-19T00:00:09;5.28;;;4.10;;
79562;SDS011;69026;50.980;11.314;2023-06-19T00:02:41;6.47;;;4.05;;
79562;SDS011;69026;50.980;11.314;2023-06-19T00:05:08;5.85;;;4.65;;
79562;SDS011;69026;50.980;11.314;2023-06-19T00:07:36;5.47;;;4.15;;
79562;SDS011;69026;50.980;11.314;2023-06-19T00:10:03;5.45;;;4.50;;
79562;SDS011;69026;50.980;11.314;2023-06-19T00:12:29;5.80;;;4.20;;
79562;SDS011;69026;50.980;11.314;2023-06-19T00:14:55;4.88;;;4.10;;
79562;SDS011;69026;50.980;11.314;2023-06-19T00:17:21;5.28;;;4.28;;
79562;SDS011;69026;50.980;11.314;2023-06-19T00:19:47;4.57;;;4.05;;
79562;SDS011;69026;50.980;11.314;2023-06-19T00:22:14;5.53;;;4.15;;
79562;SDS011;69026;50.980;11.314;2023-06-19T00:24:40;5.07;;;4.43;;
79562;SDS011;69026;50.980;11.314;2023-06-19T00:27:06;5.75;;;4.20;;
79562;SDS011;69026;50.980;11.314;2023-06-19T00:29:32;5.93;;;4.55;;
79562;SDS011;69026;50.980;11.314;2023-06-19T00:31:58;4.55;;;4.05;;
79562;SDS011;69026;50.980;11.314;2023-06-19T00:34:24;5.97;;;4.53;;
79562;SDS011;69026;50.980;11.314;2023-06-19T00:36:51;5.85;;;4.65;;
79562;SDS011;69026;50.980;11.314;2023-06-19T00:39:30;4.53;;;3.83;;
79562;SDS011;69026;50.980;11.314;2023-06-19T00:41:56;6.22;;;4.75;;
79562;SDS011;69026;50.980;11.314;2023-06-19T00:44:22;5.25;;;4.10;;
79562;SDS011;69026;50.980;11.314;2023-06-19T00:46:50;5.50;;;4.75;;
79562;SDS011;69026;50.980;11.314;2023-06-19T00:49:20;5.63;;;3.88;;
79562;SDS011;69026;50.980;11.314;2023-06-19T00:51:46;4.63;;;4.15;;
79562;SDS011;69026;50.980;11.314;2023-06-19T00:54:13;6.15;;;4.57;;
79562;SDS011;69026;50.980;11.314;2023-06-19T00:56:40;4.40;;;3.85;;
79562;SDS011;69026;50.980;11.314;2023-06-19T00:59:19;5.38;;;4.50;;
79562;SDS011;69026;50.980;11.314;2023-06-19T01:01:45;6.28;;;4.80;;
79562;SDS011;69026;50.980;11.314;2023-06-19T01:04:12;5.75;;;4.43;;
79562;SDS011;69026;50.980;11.314;2023-06-19T01:06:55;6.10;;;4.10;;
79562;SDS011;69026;50.980;11.314;2023-06-19T01:09:29;4.97;;;4.13;;
79562;SDS011;69026;50.980;11.314;2023-06-19T01:12:10;5.05;;;3.70;;
79562;SDS011;69026;50.980;11.314;2023-06-19T01:14:53;4.88;;;4.07;;
79562;SDS011;69026;50.980;11.314;2023-06-19T01:17:23;5.35;;;4.30;;
79562;SDS011;69026;50.980;11.314;2023-06-19T01:19:50;5.82;;;4.30;;
79562;SDS011;69026;50.980;11.314;2023-06-19T01:22:29;5.63;;;4.13;;
79562;SDS011;69026;50.980;11.314;2023-06-19T01:24:58;5.00;;;4.47;;
79562;SDS011;69026;50.980;11.314;2023-06-19T01:27:24;6.10;;;4.82;;
79562;SDS011;69026;50.980;11.314;2023-06-19T01:29:51;4.72;;;4.00;;
79562;SDS011;69026;50.980;11.314;2023-06-19T01:32:25;5.15;;;4.32;;
79562;SDS011;69026;50.980;11.314;2023-06-19T01:35:11;6.40;;;4.53;;
79562;SDS011;69026;50.980;11.314;2023-06-19T01:37:40;5.40;;;4.05;;
79562;SDS011;69026;50.980;11.314;2023-06-19T01:40:08;5.20;;;4.35;;
79562;SDS011;69026;50.980;11.314;2023-06-19T01:42:35;5.63;;;4.32;;
79562;SDS011;69026;50.980;11.314;2023-06-19T01:45:03;5.40;;;4.40;;
79562;SDS011;69026;50.980;11.314;2023-06-19T01:47:30;5.53;;;4.35;;
79562;SDS011;69026;50.980;11.314;2023-06-19T01:49:56;5.13;;;4.22;;
79562;SDS011;69026;50.980;11.314;2023-06-19T01:52:23;7.00;;;4.43;;
79562;SDS011;69026;50.980;11.314;2023-06-19T01:54:50;5.55;;;4.38;;
79562;SDS011;69026;50.980;11.314;2023-06-19T01:57:16;4.75;;;4.25;;
79562;SDS011;69026;50.980;11.314;2023-06-19T01:59:42;4.80;;;4.07;;
79562;SDS011;69026;50.980;11.314;2023-06-19T02:02:08;4.68;;;3.90;;
79562;SDS011;69026;50.980;11.314;2023-06-19T02:04:34;4.78;;;3.92;;
79562;SDS011;69026;50.980;11.314;2023-06-19T02:06:59;5.30;;;4.68;;
79562;SDS011;69026;50.980;11.314;2023-06-19T02:09:25;5.55;;;4.28;;
79562;SDS011;69026;50.980;11.314;2023-06-19T02:11:51;5.68;;;4.65;;
79562;SDS011;69026;50.980;11.314;2023-06-19T02:14:17;5.07;;;4.15;;
79562;SDS011;69026;50.980;11.314;2023-06-19T02:16:43;5.43;;;4.55;;
79562;SDS011;69026;50.980;11.314;2023-06-19T02:19:12;5.80;;;4.78;;
79562;SDS011;69026;50.980;11.314;2023-06-19T02:21:40;6.20;;;4.60;;
79562;SDS011;69026;50.980;11.314;2023-06-19T02:24:06;5.22;;;3.92;;
79562;SDS011;69026;50.980;11.314;2023-06-19T02:26:32;4.35;;;3.95;;
79562;SDS011;69026;50.980;11.314;2023-06-19T02:28:57;5.45;;;4.38;;
79562;SDS011;69026;50.980;11.314;2023-06-19T02:31:23;4.70;;;4.20;;
79562;SDS011;69026;50.980;11.314;2023-06-19T02:33:50;5.25;;;4.40;;
79562;SDS011;69026;50.980;11.314;2023-06-19T02:36:18;5.05;;;4.32;;
79562;SDS011;69026;50.980;11.314;2023-06-19T02:38:45;4.35;;;3.95;;
79562;SDS011;69026;50.980;11.314;2023-06-19T02:41:12;5.78;;;4.40;;
79562;SDS011;69026;50.980;11.314;2023-06-19T02:43:42;5.47;;;4.50;;
79562;SDS011;69026;50.980;11.314;2023-06-19T02:46:09;5.03;;;3.97;;
79562;SDS011;69026;50.980;11.314;2023-06-19T02:48:34;6.93;;;4.38;;
79562;SDS011;69026;50.980;11.314;2023-06-19T02:51:01;4.97;;;4.40;;
79562;SDS011;69026;50.980;11.314;2023-06-19T02:53:26;7.10;;;4.82;;
79562;SDS011;69026;50.980;11.314;2023-06-19T02:55:52;5.20;;;4.05;;
79562;SDS011;69026;50.980;11.314;2023-06-19T02:58:18;6.03;;;4.40;;
79562;SDS011;69026;50.980;11.314;2023-06-19T03:00:44;6.22;;;4.32;;
79562;SDS011;69026;50.980;11.314;2023-06-19T03:03:10;6.47;;;4.35;;
79562;SDS011;69026;50.980;11.314;2023-06-19T03:05:37;6.53;;;4.43;;
79562;SDS011;69026;50.980;11.314;2023-06-19T03:08:04;7.78;;;5.10;;
79562;SDS011;69026;50.980;11.314;2023-06-19T03:10:30;6.32;;;4.72;;
79562;SDS011;69026;50.980;11.314;2023-06-19T03:12:56;6.63;;;4.50;;
79562;SDS011;69026;50.980;11.314;2023-06-19T03:15:24;5.28;;;4.32;;
79562;SDS011;69026;50.980;11.314;2023-06-19T03:17:52;5.82;;;5.03;;
79562;SDS011;69026;50.980;11.314;2023-06-19T03:20:19;5.18;;;4.68;;
79562;SDS011;69026;50.980;11.314;2023-06-19T03:22:56;5.50;;;4.07;;
79562;SDS011;69026;50.980;11.314;2023-06-19T03:25:24;5.60;;;4.50;;
79562;SDS011;69026;50.980;11.314;2023-06-19T03:27:50;5.57;;;4.65;;
79562;SDS011;69026;50.980;11.314;2023-06-19T03:30:19;5.82;;;4.60;;
79562;SDS011;69026;50.980;11.314;2023-06-19T03:32:46;5.15;;;4.65;;
79562;SDS011;69026;50.980;11.314;2023-06-19T03:35:24;5.65;;;4.43;;
79562;SDS011;69026;50.980;11.314;2023-06-19T03:37:50;6.00;;;4.82;;
79562;SDS011;69026;50.980;11.314;2023-06-19T03:40:19;5.22;;;4.38;;
79562;SDS011;69026;50.980;11.314;2023-06-19T03:42:50;5.25;;;4.28;;
79562;SDS011;69026;50.980;11.314;2023-06-19T03:45:16;5.43;;;4.93;;
79562;SDS011;69026;50.980;11.314;2023-06-19T03:47:41;5.95;;;4.60;;
79562;SDS011;69026;50.980;11.314;2023-06-19T03:50:08;6.85;;;5.10;;
79562;SDS011;69026;50.980;11.314;2023-06-19T03:52:36;6.18;;;5.00;;
79562;SDS011;69026;50.980;11.314;2023-06-19T03:55:02;4.85;;;4.22;;
79562;SDS011;69026;50.980;11.314;2023-06-19T03:57:29;6.43;;;4.43;;
79562;SDS011;69026;50.980;11.314;2023-06-19T03:59:56;6.97;;;5.20;;
79562;SDS011;69026;50.980;11.314;2023-06-19T04:02:22;5.53;;;4.68;;
79562;SDS011;69026;50.980;11.314;2023-06-19T04:04:47;5.25;;;4.75;;
79562;SDS011;69026;50.980;11.314;2023-06-19T04:07:14;5.72;;;4.60;;
79562;SDS011;69026;50.980;11.314;2023-06-19T04:09:40;5.88;;;5.20;;
79562;SDS011;69026;50.980;11.314;2023-06-19T04:12:06;5.38;;;4.55;;
79562;SDS011;69026;50.980;11.314;2023-06-19T04:14:32;5.13;;;4.45;;
79562;SDS011;69026;50.980;11.314;2023-06-19T04:16:58;6.00;;;5.25;;
79562;SDS011;69026;50.980;11.314;2023-06-19T04:19:26;5.03;;;4.53;;
79562;SDS011;69026;50.980;11.314;2023-06-19T04:21:52;6.28;;;4.88;;
79562;SDS011;69026;50.980;11.314;2023-06-19T04:24:20;5.60;;;4.53;;
79562;SDS011;69026;50.980;11.314;2023-06-19T04:26:45;5.70;;;4.72;;
79562;SDS011;69026;50.980;11.314;2023-06-19T04:29:11;7.35;;;4.65;;
79562;SDS011;69026;50.980;11.314;2023-06-19T04:31:44;6.53;;;5.05;;
79562;SDS011;69026;50.980;11.314;2023-06-19T04:34:18;5.90;;;5.30;;
79562;SDS011;69026;50.980;11.314;2023-06-19T04:36:47;6.10;;;5.13;;
79562;SDS011;69026;50.980;11.314;2023-06-19T04:39:13;6.20;;;4.97;;
79562;SDS011;69026;50.980;11.314;2023-06-19T04:41:41;6.57;;;5.50;;
79562;SDS011;69026;50.980;11.314;2023-06-19T04:44:09;6.70;;;5.13;;
79562;SDS011;69026;50.980;11.314;2023-06-19T04:46:37;6.40;;;5.30;;
79562;SDS011;69026;50.980;11.314;2023-06-19T04:49:04;8.07;;;5.30;;
79562;SDS011;69026;50.980;11.314;2023-06-19T04:51:30;7.57;;;5.47;;
79562;SDS011;69026;50.980;11.314;2023-06-19T04:53:58;5.32;;;4.68;;
79562;SDS011;69026;50.980;11.314;2023-06-19T04:56:24;7.20;;;4.97;;
79562;SDS011;69026;50.980;11.314;2023-06-19T04:58:50;8.63;;;5.32;;
79562;SDS011;69026;50.980;11.314;2023-06-19T05:01:16;8.70;;;5.00;;
79562;SDS011;69026;50.980;11.314;2023-06-19T05:03:43;7.57;;;5.88;;
79562;SDS011;69026;50.980;11.314;2023-06-19T05:08:37;6.50;;;5.22;;
79562;SDS011;69026;50.980;11.314;2023-06-19T05:11:03;6.70;;;5.22;;
79562;SDS011;69026;50.980;11.314;2023-06-19T05:13:29;6.75;;;4.88;;
79562;SDS011;69026;50.980;11.314;2023-06-19T05:15:55;6.93;;;5.13;;
79562;SDS011;69026;50.980;11.314;2023-06-19T05:18:24;9.20;;;6.07;;
79562;SDS011;69026;50.980;11.314;2023-06-19T05:20:49;7.45;;;5.88;;
79562;SDS011;69026;50.980;11.314;2023-06-19T05:23:15;5.95;;;5.18;;
79562;SDS011;69026;50.980;11.314;2023-06-19T05:25:41;5.85;;;5.18;;
79562;SDS011;69026;50.980;11.314;2023-06-19T05:28:09;7.38;;;5.57;;
79562;SDS011;69026;50.980;11.314;2023-06-19T05:30:34;5.90;;;5.10;;
79562;SDS011;69026;50.980;11.314;2023-06-19T05:33:01;6.95;;;5.43;;
79562;SDS011;69026;50.980;11.314;2023-06-19T05:35:27;6.15;;;5.18;;
79562;SDS011;69026;50.980;11.314;2023-06-19T05:38:26;9.63;;;5.95;;
79562;SDS011;69026;50.980;11.314;2023-06-19T05:40:50;7.35;;;5.05;;
79562;SDS011;69026;50.980;11.314;2023-06-19T05:43:15;9.38;;;5.57;;
79562;SDS011;69026;50.980;11.314;2023-06-19T05:45:41;6.13;;;5.53;;
79562;SDS011;69026;50.980;11.314;2023-06-19T05:48:07;8.05;;;5.85;;
79562;SDS011;69026;50.980;11.314;2023-06-19T05:50:33;6.68;;;5.50;;
79562;SDS011;69026;50.980;11.314;2023-06-19T05:52:59;5.95;;;4.97;;
79562;SDS011;69026;50.980;11.314;2023-06-19T05:55:24;6.38;;;5.00;;
79562;SDS011;69026;50.980;11.314;2023-06-19T05:57:53;6.47;;;5.53;;
79562;SDS011;69026;50.980;11.314;2023-06-19T06:00:28;7.88;;;5.40;;
79562;SDS011;69026;50.980;11.314;2023-06-19T06:03:12;8.88;;;5.68;;
79562;SDS011;69026;50.980;11.314;2023-06-19T06:05:38;6.93;;;5.18;;
79562;SDS011;69026;50.980;11.314;2023-06-19T06:08:04;8.30;;;5.57;;
79562;SDS011;69026;50.980;11.314;2023-06-19T06:10:30;8.32;;;5.45;;
79562;SDS011;69026;50.980;11.314;2023-06-19T06:12:56;9.65;;;5.95;;
79562;SDS011;69026;50.980;11.314;2023-06-19T06:15:22;6.53;;;5.35;;
79562;SDS011;69026;50.980;11.314;2023-06-19T06:17:47;9.95;;;5.53;;
79562;SDS011;69026;50.980;11.314;2023-06-19T06:20:13;6.53;;;5.28;;
79562;SDS011;69026;50.980;11.314;2023-06-19T06:22:39;7.25;;;5.30;;
79562;SDS011;69026;50.980;11.314;2023-06-19T06:28:35;10.73;;;5.93;;
79562;SDS011;69026;50.980;11.314;2023-06-19T06:31:01;6.68;;;4.53;;
79562;SDS011;69026;50.980;11.314;2023-06-19T06:33:27;8.15;;;5.82;;
79562;SDS011;69026;50.980;11.314;2023-06-19T06:35:54;9.25;;;5.38;;
79562;SDS011;69026;50.980;11.314;2023-06-19T06:38:20;7.45;;;5.40;;
79562;SDS011;69026;50.980;11.314;2023-06-19T06:40:46;7.03;;;5.20;;
79562;SDS011;69026;50.980;11.314;2023-06-19T06:43:12;9.30;;;5.97;;
79562;SDS011;69026;50.980;11.314;2023-06-19T15:16:35;7.10;;;4.88;;
79562;SDS011;69026;50.980;11.314;2023-06-19T15:19:01;8.88;;;5.10;;
79562;SDS011;69026;50.980;11.314;2023-06-19T15:21:27;7.50;;;4.80;;
79562;SDS011;69026;50.980;11.314;2023-06-19T15:23:53;28.88;;;8.57;;
79562;SDS011;69026;50.980;11.314;2023-06-19T15:26:22;34.70;;;10.18;;
79562;SDS011;69026;50.980;11.314;2023-06-19T15:28:48;23.73;;;8.55;;
79562;SDS011;69026;50.980;11.314;2023-06-19T15:31:20;30.58;;;9.57;;
79562;SDS011;69026;50.980;11.314;2023-06-19T15:33:49;211.85;;;38.50;;
79562;SDS011;69026;50.980;11.314;2023-06-19T15:36:15;136.82;;;24.08;;
79562;SDS011;69026;50.980;11.314;2023-06-19T15:38:42;92.57;;;19.25;;
79562;SDS011;69026;50.980;11.314;2023-06-19T15:41:08;67.18;;;15.82;;
79562;SDS011;69026;50.980;11.314;2023-06-19T15:43:34;68.50;;;15.68;;
79562;SDS011;69026;50.980;11.314;2023-06-19T15:46:00;52.97;;;13.10;;
79562;SDS011;69026;50.980;11.314;2023-06-19T15:48:27;58.60;;;13.65;;
79562;SDS011;69026;50.980;11.314;2023-06-19T15:50:54;58.72;;;13.50;;
79562;SDS011;69026;50.980;11.314;2023-06-19T15:53:20;50.20;;;12.02;;
79562;SDS011;69026;50.980;11.314;2023-06-19T15:55:46;43.30;;;12.10;;
79562;SDS011;69026;50.980;11.314;2023-06-19T15:58:11;40.83;;;11.70;;
79562;SDS011;69026;50.980;11.314;2023-06-19T16:00:37;53.78;;;12.57;;
79562;SDS011;69026;50.980;11.314;2023-06-19T16:03:03;50.72;;;13.60;;
79562;SDS011;69026;50.980;11.314;2023-06-19T16:05:30;38.97;;;11.38;;
79562;SDS011;69026;50.980;11.314;2023-06-19T16:07:56;37.35;;;10.60;;
79562;SDS011;69026;50.980;11.314;2023-06-19T16:10:22;31.45;;;11.10;;
79562;SDS011;69026;50.980;11.314;2023-06-19T16:12:48;47.17;;;11.68;;
79562;SDS011;69026;50.980;11.314;2023-06-19T16:15:17;37.13;;;10.95;;
79562;SDS011;69026;50.980;11.314;2023-06-19T16:17:49;43.95;;;10.88;;
79562;SDS011;69026;50.980;11.314;2023-06-19T16:20:16;33.30;;;10.95;;
79562;SDS011;69026;50.980;11.314;2023-06-19T16:22:42;27.75;;;9.45;;
79562;SDS011;69026;50.980;11.314;2023-06-19T16:25:08;30.30;;;10.20;;
79562;SDS011;69026;50.980;11.314;2023-06-19T16:27:36;33.53;;;10.15;;
79562;SDS011;69026;50.980;11.314;2023-06-19T16:30:02;25.38;;;8.63;;
79562;SDS011;69026;50.980;11.314;2023-06-19T16:32:29;29.38;;;9.25;;
79562;SDS011;69026;50.980;11.314;2023-06-19T16:34:55;25.77;;;8.65;;
79562;SDS011;69026;50.980;11.314;2023-06-19T16:37:21;26.92;;;8.63;;
79562;SDS011;69026;50.980;11.314;2023-06-19T16:39:47;30.10;;;9.55;;
79562;SDS011;69026;50.980;11.314;2023-06-19T16:42:13;21.75;;;7.63;;
79562;SDS011;69026;50.980;11.314;2023-06-19T16:44:41;25.23;;;8.75;;
79562;SDS011;69026;50.980;11.314;2023-06-19T16:47:16;23.13;;;7.82;;
79562;SDS011;69026;50.980;11.314;2023-06-19T16:49:41;18.27;;;7.45;;
79562;SDS011;69026;50.980;11.314;2023-06-19T16:52:07;18.38;;;7.57;;
79562;SDS011;69026;50.980;11.314;2023-06-19T16:54:33;22.70;;;9.50;;
79562;SDS011;69026;50.980;11.314;2023-06-19T16:56:59;18.42;;;7.35;;
79562;SDS011;69026;50.980;11.314;2023-06-19T16:59:25;18.15;;;7.95;;
79562;SDS011;69026;50.980;11.314;2023-06-19T17:01:51;19.45;;;7.60;;
79562;SDS011;69026;50.980;11.314;2023-06-19T17:04:17;19.55;;;7.55;;
79562;SDS011;69026;50.980;11.314;2023-06-19T17:06:43;18.27;;;7.80;;
79562;SDS011;69026;50.980;11.314;2023-06-19T17:09:09;15.32;;;6.70;;
79562;SDS011;69026;50.980;11.314;2023-06-19T17:11:34;15.85;;;6.63;;
79562;SDS011;69026;50.980;11.314;2023-06-19T17:14:02;14.85;;;7.03;;
79562;SDS011;69026;50.980;11.314;2023-06-19T17:16:28;17.52;;;7.63;;
79562;SDS011;69026;50.980;11.314;2023-06-19T17:18:53;14.93;;;8.13;;
79562;SDS011;69026;50.980;11.314;2023-06-19T17:21:19;14.20;;;7.13;;
79562;SDS011;69026;50.980;11.314;2023-06-19T17:23:45;14.27;;;6.50;;
79562;SDS011;69026;50.980;11.314;2023-06-19T17:26:12;13.43;;;6.22;;
79562;SDS011;69026;50.980;11.314;2023-06-19T17:28:38;12.48;;;7.18;;
79562;SDS011;69026;50.980;11.314;2023-06-19T17:31:05;13.40;;;6.60;;
79562;SDS011;69026;50.980;11.314;2023-06-19T17:33:33;11.65;;;6.22;;
79562;SDS011;69026;50.980;11.314;2023-06-19T17:35:59;15.25;;;6.90;;
79562;SDS011;69026;50.980;11.314;2023-06-19T17:38:26;12.30;;;6.32;;
79562;SDS011;69026;50.980;11.314;2023-06-19T17:40:52;15.30;;;6.82;;
79562;SDS011;69026;50.980;11.314;2023-06-19T17:43:18;11.48;;;6.65;;
79562;SDS011;69026;50.980;11.314;2023-06-19T17:45:47;12.70;;;6.47;;
79562;SDS011;69026;50.980;11.314;2023-06-19T17:48:13;12.55;;;7.20;;
79562;SDS011;69026;50.980;11.314;2023-06-19T17:50:39;9.00;;;5.90;;
79562;SDS011;69026;50.980;11.314;2023-06-19T17:53:05;10.50;;;6.03;;
79562;SDS011;69026;50.980;11.314;2023-06-19T17:55:30;9.95;;;6.20;;
79562;SDS011;69026;50.980;11.314;2023-06-19T17:57:56;11.27;;;6.20;;
79562;SDS011;69026;50.980;11.314;2023-06-19T18:00:25;10.40;;;6.50;;
79562;SDS011;69026;50.980;11.314;2023-06-19T18:02:53;11.70;;;6.72;;
79562;SDS011;69026;50.980;11.314;2023-06-19T18:05:19;11.90;;;6.63;;
79562;SDS011;69026;50.980;11.314;2023-06-19T18:07:48;10.02;;;6.15;;
79562;SDS011;69026;50.980;11.314;2023-06-19T18:10:13;9.63;;;6.15;;
79562;SDS011;69026;50.980;11.314;2023-06-19T18:12:42;11.02;;;6.80;;
79562;SDS011;69026;50.980;11.314;2023-06-19T18:15:08;10.02;;;6.63;;
79562;SDS011;69026;50.980;11.314;2023-06-19T18:17:35;11.63;;;6.32;;
79562;SDS011;69026;50.980;11.314;2023-06-19T18:20:05;9.15;;;6.50;;
79562;SDS011;69026;50.980;11.314;2023-06-19T18:22:34;15.38;;;7.00;;
79562;SDS011;69026;50.980;11.314;2023-06-19T18:25:01;10.23;;;6.72;;
79562;SDS011;69026;50.980;11.314;2023-06-19T18:27:27;11.93;;;6.55;;
79562;SDS011;69026;50.980;11.314;2023-06-19T18:29:53;9.85;;;5.80;;
79562;SDS011;69026;50.980;11.314;2023-06-19T18:32:19;9.23;;;6.22;;
79562;SDS011;69026;50.980;11.314;2023-06-19T18:34:44;8.48;;;6.95;;
79562;SDS011;69026;50.980;11.314;2023-06-19T18:37:10;9.05;;;6.38;;
79562;SDS011;69026;50.980;11.314;2023-06-19T18:39:36;9.55;;;6.78;;
79562;SDS011;69026;50.980;11.314;2023-06-19T18:42:03;10.30;;;7.05;;
79562;SDS011;69026;50.980;11.314;2023-06-19T18:44:29;8.45;;;6.28;;
79562;SDS011;69026;50.980;11.314;2023-06-19T18:46:55;7.68;;;5.68;;
79562;SDS011;69026;50.980;11.314;2023-06-19T18:49:21;8.93;;;6.57;;
79562;SDS011;69026;50.980;11.314;2023-06-19T18:51:47;8.73;;;6.35;;
79562;SDS011;69026;50.980;11.314;2023-06-19T18:54:13;9.75;;;6.18;;
79562;SDS011;69026;50.980;11.314;2023-06-19T18:56:39;9.10;;;5.93;;
79562;SDS011;69026;50.980;11.314;2023-06-19T18:59:05;8.77;;;6.20;;
79562;SDS011;69026;50.980;11.314;2023-06-19T19:01:31;8.98;;;6.10;;
79562;SDS011;69026;50.980;11.314;2023-06-19T19:03:57;9.02;;;5.90;;
79562;SDS011;69026;50.980;11.314;2023-06-19T19:06:23;7.63;;;5.97;;
79562;SDS011;69026;50.980;11.314;2023-06-19T19:08:49;7.38;;;6.30;;
79562;SDS011;69026;50.980;11.314;2023-06-19T19:11:21;7.60;;;6.40;;
79562;SDS011;69026;50.980;11.314;2023-06-19T19:13:48;6.85;;;5.38;;
79562;SDS011;69026;50.980;11.314;2023-06-19T19:16:16;7.72;;;6.03;;
79562;SDS011;69026;50.980;11.314;2023-06-19T19:18:43;8.57;;;6.43;;
79562;SDS011;69026;50.980;11.314;2023-06-19T19:21:09;9.25;;;6.57;;
79562;SDS011;69026;50.980;11.314;2023-06-19T19:23:35;8.00;;;6.28;;
79562;SDS011;69026;50.980;11.314;2023-06-19T19:26:00;12.10;;;6.75;;
79562;SDS011;69026;50.980;11.314;2023-06-19T19:28:26;7.10;;;6.03;;
79562;SDS011;69026;50.980;11.314;2023-06-19T19:30:52;7.88;;;6.15;;
79562;SDS011;69026;50.980;11.314;2023-06-19T19:33:18;6.93;;;5.85;;
79562;SDS011;69026;50.980;11.314;2023-06-19T19:35:44;8.00;;;6.40;;
79562;SDS011;69026;50.980;11.314;2023-06-19T19:38:10;6.28;;;5.43;;
79562;SDS011;69026;50.980;11.314;2023-06-19T19:40:36;7.10;;;5.93;;
79562;SDS011;69026;50.980;11.314;2023-06-19T19:43:02;6.63;;;5.28;;
79562;SDS011;69026;50.980;11.314;2023-06-19T19:45:27;7.50;;;6.13;;
79562;SDS011;69026;50.980;11.314;2023-06-19T19:47:53;8.88;;;5.50;;
79562;SDS011;69026;50.980;11.314;2023-06-19T19:50:24;7.25;;;5.43;;
79562;SDS011;69026;50.980;11.314;2023-06-19T19:52:52;6.90;;;5.45;;
79562;SDS011;69026;50.980;11.314;2023-06-19T19:55:17;6.78;;;5.45;;
79562;SDS011;69026;50.980;11.314;2023-06-19T19:57:44;6.90;;;5.60;;
79562;SDS011;69026;50.980;11.314;2023-06-19T20:00:10;6.45;;;4.68;;
79562;SDS011;69026;50.980;11.314;2023-06-19T20:02:40;7.13;;;5.75;;
79562;SDS011;69026;50.980;11.314;2023-06-19T20:05:07;6.20;;;5.25;;
79562;SDS011;69026;50.980;11.314;2023-06-19T20:07:33;7.10;;;5.75;;
79562;SDS011;69026;50.980;11.314;2023-06-19T20:09:59;5.38;;;4.88;;
79562;SDS011;69026;50.980;11.314;2023-06-19T20:12:26;8.73;;;5.72;;
79562;SDS011;69026;50.980;11.314;2023-06-19T20:14:52;7.15;;;5.03;;
79562;SDS011;69026;50.980;11.314;2023-06-19T20:17:19;8.88;;;5.88;;
79562;SDS011;69026;50.980;11.314;2023-06-19T20:19:45;5.60;;;5.10;;
79562;SDS011;69026;50.980;11.314;2023-06-19T20:22:11;7.65;;;4.97;;
79562;SDS011;69026;50.980;11.314;2023-06-19T20:24:37;7.38;;;5.85;;
79562;SDS011;69026;50.980;11.314;2023-06-19T20:27:03;6.63;;;5.32;;
79562;SDS011;69026;50.980;11.314;2023-06-19T20:29:29;9.10;;;5.55;;
79562;SDS011;69026;50.980;11.314;2023-06-19T20:31:55;5.53;;;4.97;;
79562;SDS011;69026;50.980;11.314;2023-06-19T20:34:21;8.38;;;4.93;;
79562;SDS011;69026;50.980;11.314;2023-06-19T20:36:47;5.63;;;5.00;;
79562;SDS011;69026;50.980;11.314;2023-06-19T20:39:13;6.82;;;5.03;;
79562;SDS011;69026;50.980;11.314;2023-06-19T20:41:38;5.85;;;4.53;;
79562;SDS011;69026;50.980;11.314;2023-06-19T20:44:04;5.78;;;4.80;;
79562;SDS011;69026;50.980;11.314;2023-06-19T20:46:30;5.95;;;5.13;;
79562;SDS011;69026;50.980;11.314;2023-06-19T20:48:56;6.25;;;4.70;;
79562;SDS011;69026;50.980;11.314;2023-06-19T20:51:22;8.18;;;5.55;;
79562;SDS011;69026;50.980;11.314;2023-06-19T20:53:48;6.90;;;4.50;;
79562;SDS011;69026;50.980;11.314;2023-06-19T20:56:13;6.80;;;4.88;;
79562;SDS011;69026;50.980;11.314;2023-06-19T20:58:41;8.60;;;5.93;;
79562;SDS011;69026;50.980;11.314;2023-06-19T21:01:07;6.72;;;4.25;;
79562;SDS011;69026;50.980;11.314;2023-06-19T21:03:33;5.72;;;4.25;;
79562;SDS011;69026;50.980;11.314;2023-06-19T21:05:59;4.68;;;4.20;;
79562;SDS011;69026;50.980;11.314;2023-06-19T21:08:25;4.90;;;4.18;;
79562;SDS011;69026;50.980;11.314;2023-06-19T21:10:58;5.88;;;4.65;;
79562;SDS011;69026;50.980;11.314;2023-06-19T21:13:25;6.20;;;4.78;;
79562;SDS011;69026;50.980;11.314;2023-06-19T21:15:51;5.70;;;5.03;;
79562;SDS011;69026;50.980;11.314;2023-06-19T21:18:17;6.82;;;4.60;;
79562;SDS011;69026;50.980;11.314;2023-06-19T21:20:43;7.55;;;4.47;;
79562;SDS011;69026;50.980;11.314;2023-06-19T21:23:09;5.28;;;4.47;;
79562;SDS011;69026;50.980;11.314;2023-06-19T21:25:35;6.28;;;4.40;;
79562;SDS011;69026;50.980;11.314;2023-06-19T21:28:01;4.43;;;4.03;;
79562;SDS011;69026;50.980;11.314;2023-06-19T21:30:27;8.45;;;4.50;;
79562;SDS011;69026;50.980;11.314;2023-06-19T21:32:52;8.10;;;4.60;;
79562;SDS011;69026;50.980;11.314;2023-06-19T21:35:18;7.75;;;4.43;;
79562;SDS011;69026;50.980;11.314;2023-06-19T21:37:44;8.60;;;4.53;;
79562;SDS011;69026;50.980;11.314;2023-06-19T21:40:10;7.00;;;4.03;;
79562;SDS011;69026;50.980;11.314;2023-06-19T21:42:36;5.63;;;4.07;;
79562;SDS011;69026;50.980;11.314;2023-06-19T21:45:02;6.03;;;4.47;;
79562;SDS011;69026;50.980;11.314;2023-06-19T21:47:28;7.38;;;4.55;;
79562;SDS011;69026;50.980;11.314;2023-06-19T21:49:54;6.25;;;4.18;;
79562;SDS011;69026;50.980;11.314;2023-06-19T21:52:20;5.78;;;3.85;;
79562;SDS011;69026;50.980;11.314;2023-06-19T21:54:46;7.57;;;4.30;;
79562;SDS011;69026;50.980;11.314;2023-06-19T21:57:12;8.63;;;4.60;;
79562;SDS011;69026;50.980;11.314;2023-06-19T21:59:37;6.80;;;3.92;;
79562;SDS011;69026;50.980;11.314;2023-06-19T22:02:03;5.95;;;4.20;;
79562;SDS011;69026;50.980;11.314;2023-06-19T22:04:29;5.65;;;4.10;;
79562;SDS011;69026;50.980;11.314;2023-06-19T22:06:55;6.85;;;3.90;;
79562;SDS011;69026;50.980;11.314;2023-06-19T22:09:21;5.15;;;4.10;;
79562;SDS011;69026;50.980;11.314;2023-06-19T22:11:47;5.13;;;4.05;;
79562;SDS011;69026;50.980;11.314;2023-06-19T22:14:12;6.43;;;4.13;;
79562;SDS011;69026;50.980;11.314;2023-06-19T22:16:38;6.22;;;3.92;;
79562;SDS011;69026;50.980;11.314;2023-06-19T22:19:04;7.72;;;4.15;;
79562;SDS011;69026;50.980;11.314;2023-06-19T22:21:30;8.85;;;4.35;;
79562;SDS011;69026;50.980;11.314;2023-06-19T22:23:56;6.00;;;3.78;;
79562;SDS011;69026;50.980;11.314;2023-06-19T22:26:21;8.18;;;4.07;;
79562;SDS011;69026;50.980;11.314;2023-06-19T22:28:47;6.65;;;3.80;;
79562;SDS011;69026;50.980;11.314;2023-06-19T22:31:13;9.27;;;4.45;;
79562;SDS011;69026;50.980;11.314;2023-06-19T22:33:39;6.90;;;4.05;;
79562;SDS011;69026;50.980;11.314;2023-06-19T22:36:05;9.82;;;4.30;;
79562;SDS011;69026;50.980;11.314;2023-06-19T22:38:34;9.40;;;4.32;;
79562;SDS011;69026;50.980;11.314;2023-06-19T22:41:00;7.78;;;3.50;;
79562;SDS011;69026;50.980;11.314;2023-06-19T22:43:25;8.52;;;4.50;;
79562;SDS011;69026;50.980;11.314;2023-06-19T22:45:51;7.82;;;4.15;;
79562;SDS011;69026;50.980;11.314;2023-06-19T22:48:17;9.57;;;4.40;;
79562;SDS011;69026;50.980;11.314;2023-06-19T22:50:44;8.35;;;4.32;;
79562;SDS011;69026;50.980;11.314;2023-06-19T22:53:11;9.07;;;4.32;;
79562;SDS011;69026;50.980;11.314;2023-06-19T22:55:37;7.65;;;4.72;;
79562;SDS011;69026;50.980;11.314;2023-06-19T22:58:03;5.35;;;3.92;;
79562;SDS011;69026;50.980;11.314;2023-06-19T23:00:29;11.57;;;4.35;;
79562;SDS011;69026;50.980;11.314;2023-06-19T23:02:54;10.82;;;4.30;;
79562;SDS011;69026;50.980;11.314;2023-06-19T23:05:20;9.40;;;5.03;;